Time;durP1;ratioP1;P1;durP2;ratioP2;P2;SDS_P1;SDS_P2;PMS_P1;PMS_P2;Temp;Humidity;BMP_temperature;BMP_pressure;BME280_temperature;BME280_humidity;BME280_pressure;Samples;Min_cycle;Max_cycle;Signal;HPM_P1;HPM_P2
2023/01/30 00:01:40;;;;;;;31.97;12.20;;;-2.80;99.90;;;;;;4425615;28;660268;-63
2023/01/30 00:04:28;;;;;;;30.07;12.67;;;-2.70;99.90;;;;;;4427457;28;661201;-64
2023/01/30 00:07:17;;;;;;;30.13;11.17;;;-2.70;99.90;;;;;;4365861;28;659229;-64
2023/01/30 00:10:04;;;;;;;32.33;13.17;;;-2.80;99.90;;;;;;4385646;28;659758;-64
2023/01/30 00:12:52;;;;;;;31.70;13.37;;;-2.70;99.90;;;;;;4355271;28;659444;-64
2023/01/30 00:15:39;;;;;;;35.33;12.53;;;-2.80;99.90;;;;;;4427415;28;660509;-63
2023/01/30 00:18:26;;;;;;;34.47;14.50;;;-2.80;99.90;;;;;;4417305;28;659894;-63
2023/01/30 00:21:14;;;;;;;38.07;14.00;;;-2.80;99.90;;;;;;4429241;28;661397;-63
2023/01/30 00:24:02;;;;;;;30.50;12.90;;;-2.80;99.90;;;;;;4410764;28;659615;-63
2023/01/30 00:26:50;;;;;;;18.93;9.03;;;-2.80;99.90;;;;;;4437283;28;659745;-63
2023/01/30 00:29:37;;;;;;;29.83;13.47;;;-2.90;99.90;;;;;;4413061;28;660459;-63
2023/01/30 00:32:29;;;;;;;33.97;12.90;;;-2.80;99.90;;;;;;4439245;28;659194;-63
2023/01/30 00:35:16;;;;;;;25.87;11.33;;;-2.80;99.90;;;;;;4425019;28;659598;-63
2023/01/30 00:38:03;;;;;;;26.95;11.82;;;-2.80;99.90;;;;;;4438178;28;660069;-64
2023/01/30 00:40:52;;;;;;;30.23;12.20;;;-2.90;99.90;;;;;;4415191;28;659752;-63
2023/01/30 00:47:07;;;;;;;27.17;12.67;;;-2.90;99.90;;;;;;4361292;28;659912;-63
2023/01/30 00:49:55;;;;;;;29.17;11.07;;;-2.90;99.90;;;;;;4409953;28;661865;-64
2023/01/30 00:52:42;;;;;;;32.13;13.00;;;-2.90;99.90;;;;;;4441536;28;660632;-64
2023/01/30 00:55:30;;;;;;;31.87;13.07;;;-2.90;99.90;;;;;;4439775;28;659820;-63
2023/01/30 00:58:19;;;;;;;29.63;9.53;;;-2.90;99.90;;;;;;4441427;28;660983;-63
2023/01/30 01:01:06;;;;;;;31.20;12.77;;;-2.90;99.90;;;;;;4420223;28;659183;-63
2023/01/30 01:03:53;;;;;;;24.92;11.02;;;-2.90;99.90;;;;;;4435388;28;660819;-63
2023/01/30 01:06:40;;;;;;;24.77;11.33;;;-3.10;99.90;;;;;;4419696;28;660145;-63
2023/01/30 01:09:28;;;;;;;22.00;10.10;;;-3.10;99.90;;;;;;4442698;28;660562;-63
2023/01/30 01:12:15;;;;;;;26.33;10.87;;;-3.10;99.90;;;;;;4426553;28;659631;-63
2023/01/30 01:15:04;;;;;;;25.67;11.57;;;-3.10;99.90;;;;;;4445623;28;660479;-64
2023/01/30 01:17:52;;;;;;;22.33;10.27;;;-3.10;99.90;;;;;;4425844;28;661081;-63
2023/01/30 01:20:39;;;;;;;21.27;9.57;;;-3.10;99.90;;;;;;4433116;28;660951;-63
2023/01/30 01:23:26;;;;;;;21.47;10.13;;;-3.10;99.90;;;;;;4397409;28;658939;-63
2023/01/30 01:26:15;;;;;;;15.97;6.87;;;-3.20;99.90;;;;;;4424509;28;659332;-63
2023/01/30 01:29:02;;;;;;;18.20;6.77;;;-3.30;99.90;;;;;;4410091;28;659800;-63
2023/01/30 01:31:50;;;;;;;24.17;10.27;;;-3.40;99.90;;;;;;4422687;28;658328;-66
2023/01/30 01:34:38;;;;;;;14.30;5.37;;;-3.50;99.90;;;;;;4400644;28;660198;-63
2023/01/30 01:37:25;;;;;;;20.00;8.23;;;-3.50;99.90;;;;;;4415109;28;659292;-66
2023/01/30 01:43:22;;;;;;;28.05;10.88;;;-3.70;99.90;;;;;;4376569;28;659043;-63
2023/01/30 01:46:14;;;;;;;20.50;8.87;;;-3.80;99.90;;;;;;4420324;28;659799;-63
2023/01/30 01:49:05;;;;;;;28.10;9.73;;;-3.80;99.90;;;;;;4410162;28;659080;-63
2023/01/30 01:51:55;;;;;;;24.73;10.63;;;-3.90;99.90;;;;;;4401312;28;660370;-63
2023/01/30 01:54:44;;;;;;;14.00;6.00;;;-4.00;99.90;;;;;;4399393;28;660126;-63
2023/01/30 01:57:33;;;;;;;29.63;11.47;;;-4.00;99.90;;;;;;4396778;28;658781;-63
2023/01/30 02:00:21;;;;;;;25.38;10.70;;;-4.10;99.90;;;;;;4408006;28;659688;-63
2023/01/30 02:03:09;;;;;;;17.90;8.30;;;-4.10;99.90;;;;;;4429777;28;659755;-63
2023/01/30 02:05:58;;;;;;;19.17;8.20;;;-4.10;99.90;;;;;;4401929;28;657925;-63
2023/01/30 02:08:47;;;;;;;23.47;10.50;;;-4.20;99.90;;;;;;4402043;28;658661;-63
2023/01/30 02:11:37;;;;;;;26.40;9.50;;;-4.30;99.90;;;;;;4423672;28;660797;-63
2023/01/30 02:14:24;;;;;;;17.43;7.27;;;-4.30;99.90;;;;;;4393125;28;659320;-63
2023/01/30 02:17:12;;;;;;;22.87;9.00;;;-4.40;99.90;;;;;;4408020;28;658290;-63
2023/01/30 02:20:02;;;;;;;21.27;9.47;;;-4.40;99.90;;;;;;4422385;28;658036;-63
2023/01/30 02:23:26;;;;;;;20.53;8.60;;;-4.40;99.90;;;;;;4414346;28;658799;-63
2023/01/30 02:26:52;;;;;;;10.35;4.97;;;-4.40;99.90;;;;;;4425728;28;659559;-63
2023/01/30 02:30:03;;;;;;;20.05;8.82;;;-4.40;99.90;;;;;;4407542;28;658654;-63
2023/01/30 02:32:55;;;;;;;16.40;7.37;;;-4.40;99.90;;;;;;4361818;28;659153;-63
2023/01/30 02:35:45;;;;;;;12.27;4.47;;;-4.50;99.90;;;;;;4421914;28;659471;-63
2023/01/30 02:38:36;;;;;;;25.47;9.37;;;-4.40;99.90;;;;;;4412161;28;659694;-65
2023/01/30 02:41:27;;;;;;;13.07;6.57;;;-4.40;99.90;;;;;;4420901;28;659725;-66
2023/01/30 02:44:17;;;;;;;12.60;5.63;;;-4.30;99.90;;;;;;4414919;28;658454;-63
2023/01/30 02:47:06;;;;;;;20.60;9.37;;;-4.30;99.90;;;;;;4412804;28;658737;-63
2023/01/30 02:49:59;;;;;;;13.37;6.63;;;-4.30;99.90;;;;;;4412772;28;658563;-63
2023/01/30 02:52:46;;;;;;;18.50;8.43;;;-4.30;99.90;;;;;;4394043;28;660583;-63
2023/01/30 02:55:34;;;;;;;10.47;5.17;;;-4.20;99.90;;;;;;4432662;28;658934;-66
2023/01/30 02:58:21;;;;;;;18.50;7.87;;;-4.20;99.90;;;;;;4427566;28;659122;-65
2023/01/30 03:01:39;;;;;;;16.67;6.73;;;-4.10;99.90;;;;;;4447132;28;660419;-63
2023/01/30 03:04:31;;;;;;;7.07;3.10;;;-4.10;99.90;;;;;;4392405;28;658873;-65
2023/01/30 03:07:26;;;;;;;16.03;5.53;;;-4.00;99.90;;;;;;4400384;28;658459;-66
2023/01/30 03:10:19;;;;;;;10.30;4.40;;;-3.90;99.90;;;;;;4408112;28;659708;-65
2023/01/30 03:13:10;;;;;;;10.90;5.40;;;-3.90;99.90;;;;;;4406997;28;658759;-65
2023/01/30 03:15:59;;;;;;;9.27;3.53;;;-3.80;99.90;;;;;;4410264;28;659705;-64
2023/01/30 03:18:46;;;;;;;13.10;5.47;;;-3.70;99.90;;;;;;4412836;28;657348;-64
2023/01/30 03:21:33;;;;;;;12.75;5.72;;;-3.70;99.90;;;;;;4433553;28;660106;-65
2023/01/30 03:24:22;;;;;;;14.70;6.37;;;-3.60;99.90;;;;;;4408011;28;658772;-65
2023/01/30 03:27:11;;;;;;;11.02;5.30;;;-3.60;99.90;;;;;;4430796;28;659185;-65
2023/01/30 03:29:58;;;;;;;8.97;4.77;;;-3.60;99.90;;;;;;4414417;28;659425;-65
2023/01/30 03:32:45;;;;;;;12.02;5.22;;;-3.60;99.90;;;;;;4418769;28;657917;-65
2023/01/30 03:35:32;;;;;;;10.07;4.73;;;-3.60;99.90;;;;;;4434159;28;659944;-65
2023/01/30 03:38:20;;;;;;;10.07;4.40;;;-3.60;99.90;;;;;;4425427;28;658564;-65
2023/01/30 03:41:09;;;;;;;18.30;7.03;;;-3.60;99.90;;;;;;4430009;28;660051;-65
2023/01/30 03:43:56;;;;;;;14.67;6.23;;;-3.60;99.90;;;;;;4416635;28;659484;-65
2023/01/30 03:46:43;;;;;;;17.33;7.50;;;-3.70;99.90;;;;;;4431743;28;659225;-65
2023/01/30 03:49:30;;;;;;;18.70;7.63;;;-3.60;99.90;;;;;;4412704;28;658956;-65
2023/01/30 03:52:18;;;;;;;12.63;3.43;;;-3.60;99.90;;;;;;4436874;28;659522;-64
2023/01/30 03:55:06;;;;;;;12.70;4.93;;;-3.60;99.90;;;;;;4426218;28;659436;-66
2023/01/30 03:57:56;;;;;;;11.07;5.07;;;-3.60;99.90;;;;;;4433931;28;658929;-65
2023/01/30 04:00:43;;;;;;;10.20;5.07;;;-3.60;99.90;;;;;;4414377;28;659177;-65
2023/01/30 04:03:31;;;;;;;14.57;6.90;;;-3.70;99.90;;;;;;4412354;28;659804;-65
2023/01/30 04:06:18;;;;;;;12.93;5.03;;;-3.70;99.90;;;;;;4440085;28;659150;-65
2023/01/30 04:09:05;;;;;;;12.40;5.43;;;-3.70;99.90;;;;;;4422378;28;658942;-67
2023/01/30 04:11:52;;;;;;;12.87;5.63;;;-3.70;99.90;;;;;;4441421;28;659946;-65
2023/01/30 04:14:42;;;;;;;15.97;6.77;;;-3.70;99.90;;;;;;4440132;28;658580;-65
2023/01/30 04:17:29;;;;;;;11.47;3.40;;;-3.80;99.90;;;;;;4432039;28;658792;-65
2023/01/30 04:20:16;;;;;;;8.30;3.63;;;-3.80;99.90;;;;;;4420677;28;659080;-65
2023/01/30 04:23:04;;;;;;;12.87;5.53;;;-3.70;99.90;;;;;;4448776;28;657891;-65
2023/01/30 04:25:51;;;;;;;13.27;6.33;;;-3.70;99.90;;;;;;4416845;28;658579;-65
2023/01/30 04:28:38;;;;;;;11.57;5.47;;;-3.70;99.90;;;;;;4440052;28;659421;-65
2023/01/30 04:31:27;;;;;;;11.68;5.20;;;-3.70;99.90;;;;;;4417284;28;658287;-66
2023/01/30 04:34:14;;;;;;;15.10;7.03;;;-3.70;99.90;;;;;;4434840;28;658711;-65
2023/01/30 04:37:01;;;;;;;7.97;4.20;;;-3.70;99.90;;;;;;4418078;28;658720;-65
2023/01/30 04:39:48;;;;;;;12.93;6.70;;;-3.70;99.90;;;;;;4445093;28;657460;-65
2023/01/30 04:42:36;;;;;;;12.87;5.33;;;-3.60;99.90;;;;;;4421818;28;658392;-66
2023/01/30 04:45:23;;;;;;;14.80;6.83;;;-3.70;99.90;;;;;;4437296;28;659107;-65
2023/01/30 04:48:12;;;;;;;17.57;7.93;;;-3.70;99.90;;;;;;4423772;28;658886;-65
2023/01/30 04:50:59;;;;;;;12.97;5.97;;;-3.60;99.90;;;;;;4431953;28;658266;-66
2023/01/30 04:53:46;;;;;;;13.20;6.47;;;-3.60;99.90;;;;;;4413810;28;658994;-65
2023/01/30 04:56:33;;;;;;;11.40;5.35;;;-3.60;99.90;;;;;;4441441;28;660378;-65
2023/01/30 04:59:20;;;;;;;11.67;4.87;;;-3.50;99.90;;;;;;4414827;28;658224;-66
2023/01/30 05:02:08;;;;;;;15.63;5.80;;;-3.50;99.90;;;;;;4439084;28;659257;-65
2023/01/30 05:04:57;;;;;;;20.70;6.38;;;-3.60;99.90;;;;;;4422942;28;659046;-66
2023/01/30 05:07:44;;;;;;;8.97;4.37;;;-3.50;99.90;;;;;;4436866;28;658297;-65
2023/01/30 05:10:31;;;;;;;12.10;5.97;;;-3.50;99.90;;;;;;4414626;28;657845;-65
2023/01/30 05:13:18;;;;;;;12.90;5.10;;;-3.50;99.90;;;;;;4436720;28;659310;-65
2023/01/30 05:16:06;;;;;;;8.47;4.17;;;-3.40;99.90;;;;;;4422516;28;658604;-66
2023/01/30 05:18:53;;;;;;;16.53;5.07;;;-3.50;99.90;;;;;;4438526;28;658372;-65
2023/01/30 05:21:42;;;;;;;13.48;5.80;;;-3.40;99.90;;;;;;4425920;28;658283;-65
2023/01/30 05:24:29;;;;;;;15.80;4.73;;;-3.50;99.90;;;;;;4435817;28;658801;-65
2023/01/30 05:27:16;;;;;;;17.60;8.40;;;-3.40;99.90;;;;;;4410168;28;658250;-65
2023/01/30 05:30:04;;;;;;;13.63;6.25;;;-3.40;99.90;;;;;;4435904;28;660596;-65
2023/01/30 05:32:51;;;;;;;14.07;6.80;;;-3.30;99.90;;;;;;4416807;28;659754;-65
2023/01/30 05:35:38;;;;;;;12.83;4.60;;;-3.20;99.90;;;;;;4446752;28;659176;-64
2023/01/30 05:38:27;;;;;;;16.40;7.07;;;-3.20;99.90;;;;;;4415963;28;658402;-65
2023/01/30 05:41:15;;;;;;;15.23;6.73;;;-3.20;99.90;;;;;;4441146;28;660040;-65
2023/01/30 05:44:02;;;;;;;15.20;5.30;;;-3.20;99.90;;;;;;4415755;28;658889;-65
2023/01/30 05:46:49;;;;;;;7.93;3.57;;;-3.20;99.90;;;;;;4441261;28;658488;-65
2023/01/30 05:49:37;;;;;;;18.23;7.93;;;-3.20;99.90;;;;;;4413578;28;659176;-65
2023/01/30 05:52:24;;;;;;;13.50;5.67;;;-3.20;99.90;;;;;;4434105;28;659216;-65
2023/01/30 05:55:13;;;;;;;17.93;7.20;;;-3.20;99.90;;;;;;4422879;28;658770;-65
2023/01/30 05:58:00;;;;;;;15.90;6.13;;;-3.20;99.90;;;;;;4432938;28;658403;-65
2023/01/30 06:00:48;;;;;;;14.17;6.30;;;-3.10;99.90;;;;;;4435783;28;659780;-66
2023/01/30 06:03:35;;;;;;;10.70;4.70;;;-3.10;99.90;;;;;;4420707;28;659062;-65
2023/01/30 06:06:22;;;;;;;18.47;7.13;;;-3.00;99.90;;;;;;4447308;28;659103;-65
2023/01/30 06:09:10;;;;;;;17.90;8.03;;;-3.10;99.90;;;;;;4433545;28;658394;-65
2023/01/30 06:11:59;;;;;;;14.10;6.37;;;-3.00;99.90;;;;;;4402830;28;660077;-65
2023/01/30 06:14:46;;;;;;;16.00;6.23;;;-2.90;99.90;;;;;;4313774;28;658565;-66
2023/01/30 06:17:33;;;;;;;14.73;6.22;;;-2.90;99.90;;;;;;4316804;28;660425;-66
2023/01/30 06:20:21;;;;;;;15.37;5.70;;;-2.80;99.90;;;;;;4320846;28;659591;-65
2023/01/30 06:23:08;;;;;;;14.77;7.00;;;-2.80;99.90;;;;;;4441102;28;658902;-65
2023/01/30 06:25:55;;;;;;;16.50;6.97;;;-2.80;99.90;;;;;;4420915;28;658534;-65
2023/01/30 06:28:44;;;;;;;13.83;6.17;;;-2.80;99.90;;;;;;4435774;28;660160;-65
2023/01/30 06:31:31;;;;;;;18.73;9.30;;;-2.70;99.90;;;;;;4420273;28;658502;-65
2023/01/30 06:34:18;;;;;;;14.23;6.40;;;-2.70;99.90;;;;;;4438995;28;659996;-65
2023/01/30 06:37:05;;;;;;;16.40;7.93;;;-2.70;99.90;;;;;;4409559;28;660749;-65
2023/01/30 06:39:53;;;;;;;15.30;7.30;;;-2.60;99.90;;;;;;4433422;28;659463;-66
2023/01/30 06:42:45;;;;;;;14.90;6.60;;;-2.60;99.90;;;;;;4422154;28;658714;-66
2023/01/30 06:45:33;;;;;;;13.03;5.97;;;-2.60;99.90;;;;;;4416377;28;660500;-65
2023/01/30 06:48:20;;;;;;;15.50;6.57;;;-2.50;99.90;;;;;;4416854;28;658805;-65
2023/01/30 06:51:08;;;;;;;12.83;5.27;;;-2.40;99.90;;;;;;4444758;28;659955;-65
2023/01/30 06:53:55;;;;;;;15.13;7.53;;;-2.40;99.90;;;;;;4430794;28;659304;-66
2023/01/30 06:56:42;;;;;;;13.70;6.13;;;-2.40;99.90;;;;;;4439766;28;659216;-65
2023/01/30 06:59:30;;;;;;;18.33;8.13;;;-2.40;99.90;;;;;;4436989;28;658941;-65
2023/01/30 07:02:19;;;;;;;17.27;8.07;;;-2.40;99.90;;;;;;4441148;28;659613;-63
2023/01/30 07:05:07;;;;;;;15.37;6.20;;;-2.30;99.90;;;;;;4412837;28;658775;-66
2023/01/30 07:07:54;;;;;;;15.87;6.33;;;-2.20;99.90;;;;;;4433903;28;659045;-65
2023/01/30 07:10:42;;;;;;;19.97;9.53;;;-2.20;99.90;;;;;;4410080;28;659018;-65
2023/01/30 07:13:29;;;;;;;15.60;7.40;;;-2.20;99.90;;;;;;4439665;28;659280;-65
2023/01/30 07:16:16;;;;;;;9.67;4.63;;;-2.20;99.90;;;;;;4413712;28;658794;-65
2023/01/30 07:19:05;;;;;;;19.63;6.40;;;-2.10;99.90;;;;;;4435287;28;658181;-65
2023/01/30 07:21:52;;;;;;;16.53;6.63;;;-2.10;99.90;;;;;;4406356;28;659590;-63
2023/01/30 07:24:41;;;;;;;19.85;9.50;;;-2.00;99.90;;;;;;4433772;28;658839;-63
2023/01/30 07:27:28;;;;;;;14.97;7.83;;;-2.00;99.90;;;;;;4409247;28;659080;-63
2023/01/30 07:30:16;;;;;;;14.23;7.17;;;-2.00;99.90;;;;;;4413999;28;659353;-63
2023/01/30 07:33:04;;;;;;;18.57;5.87;;;-2.00;99.90;;;;;;4439583;28;659030;-63
2023/01/30 07:35:53;;;;;;;18.23;6.27;;;-1.90;99.90;;;;;;4413132;28;658516;-64
2023/01/30 07:38:40;;;;;;;15.10;6.97;;;-1.80;99.90;;;;;;4417478;28;659413;-66
2023/01/30 07:41:27;;;;;;;12.77;6.13;;;-1.90;99.90;;;;;;4436040;28;660156;-63
2023/01/30 07:44:15;;;;;;;14.20;7.17;;;-1.80;99.90;;;;;;4433613;28;658654;-66
2023/01/30 07:47:02;;;;;;;11.10;6.30;;;-1.80;99.90;;;;;;4444870;28;659413;-66
2023/01/30 07:49:50;;;;;;;14.93;7.33;;;-1.80;99.90;;;;;;4438360;28;658825;-66
2023/01/30 07:52:39;;;;;;;14.47;6.47;;;-1.80;99.90;;;;;;4441096;28;659586;-65
2023/01/30 07:55:27;;;;;;;13.00;6.67;;;-1.80;99.90;;;;;;4415697;28;658380;-66
2023/01/30 07:58:14;;;;;;;16.50;7.23;;;-1.80;99.90;;;;;;4434698;28;658265;-65
2023/01/30 08:01:02;;;;;;;12.60;6.27;;;-1.70;99.90;;;;;;4417849;28;658850;-66
2023/01/30 08:03:49;;;;;;;17.13;7.03;;;-1.70;99.90;;;;;;4434298;28;658821;-65
2023/01/30 08:06:38;;;;;;;16.48;7.20;;;-1.60;99.90;;;;;;4420533;28;658659;-66
2023/01/30 08:09:27;;;;;;;17.07;5.33;;;-1.60;99.90;;;;;;4416641;28;662138;-65
2023/01/30 08:12:14;;;;;;;11.13;5.07;;;-1.50;99.90;;;;;;4441289;28;659206;-64
2023/01/30 08:15:01;;;;;;;11.07;5.13;;;-1.50;99.90;;;;;;4415629;28;658570;-65
2023/01/30 08:17:53;;;;;;;18.85;6.95;;;-1.40;99.90;;;;;;4440720;28;660465;-65
2023/01/30 08:20:41;;;;;;;16.00;6.70;;;-1.40;99.90;;;;;;4391451;28;658909;-72
2023/01/30 08:23:28;;;;;;;13.03;5.93;;;-1.40;99.90;;;;;;4437646;28;658906;-72
2023/01/30 08:26:17;;;;;;;27.47;8.20;;;-1.30;99.90;;;;;;4413299;28;659119;-72
2023/01/30 08:29:04;;;;;;;10.63;5.27;;;-1.20;99.90;;;;;;4436193;28;658822;-72
2023/01/30 08:31:52;;;;;;;10.27;5.00;;;-1.20;99.90;;;;;;4414547;28;659239;-74
2023/01/30 08:34:39;;;;;;;24.93;7.83;;;-1.20;99.90;;;;;;4445472;28;658106;-73
2023/01/30 08:37:26;;;;;;;10.37;4.80;;;-1.20;99.90;;;;;;4417307;28;658866;-75
2023/01/30 08:40:14;;;;;;;16.42;7.07;;;-1.20;99.90;;;;;;4446647;28;658229;-73
2023/01/30 08:43:02;;;;;;;18.13;7.53;;;-1.20;99.90;;;;;;4411323;28;659117;-74
2023/01/30 08:45:52;;;;;;;13.80;5.67;;;-1.10;99.90;;;;;;4428724;28;658739;-73
2023/01/30 08:48:42;;;;;;;14.40;6.07;;;-1.10;99.90;;;;;;4431894;28;658836;-71
2023/01/30 08:51:29;;;;;;;16.07;7.10;;;-1.20;99.90;;;;;;4442721;28;658458;-73
2023/01/30 08:54:16;;;;;;;14.23;6.63;;;-1.10;99.90;;;;;;4413079;28;658909;-73
2023/01/30 08:57:03;;;;;;;11.25;5.43;;;-1.10;99.90;;;;;;4440311;28;659321;-74
2023/01/30 08:59:52;;;;;;;19.60;7.40;;;-1.00;99.90;;;;;;4420134;28;658741;-73
2023/01/30 09:02:39;;;;;;;12.97;6.90;;;-0.90;99.90;;;;;;4438227;28;658997;-72
2023/01/30 09:05:27;;;;;;;11.93;5.87;;;-1.00;99.90;;;;;;4424221;28;658752;-73
2023/01/30 09:08:14;;;;;;;14.63;7.17;;;-1.00;99.90;;;;;;4442800;28;658854;-73
2023/01/30 09:11:01;;;;;;;13.30;5.73;;;-1.00;99.90;;;;;;4420982;28;658761;-73
2023/01/30 09:13:49;;;;;;;13.20;6.60;;;-1.10;99.90;;;;;;4434030;28;659240;-72
2023/01/30 09:16:37;;;;;;;12.30;6.10;;;-1.10;99.90;;;;;;4430939;28;658597;-73
2023/01/30 09:19:25;;;;;;;17.60;7.00;;;-1.10;99.90;;;;;;4428941;28;658151;-73
2023/01/30 09:22:12;;;;;;;14.53;7.43;;;-1.10;99.90;;;;;;4406390;28;658746;-72
2023/01/30 09:25:00;;;;;;;11.10;5.57;;;-1.10;99.90;;;;;;4436890;28;658920;-73
2023/01/30 09:27:48;;;;;;;14.40;6.73;;;-1.20;99.90;;;;;;4415809;28;659879;-72
2023/01/30 09:30:36;;;;;;;16.60;6.60;;;-1.10;99.90;;;;;;4413663;28;658730;-73
2023/01/30 09:33:24;;;;;;;8.77;4.73;;;-1.10;99.90;;;;;;4440189;28;658882;-74
2023/01/30 09:36:11;;;;;;;17.93;6.80;;;-1.00;99.90;;;;;;4417826;28;658368;-73
2023/01/30 09:38:59;;;;;;;13.97;6.43;;;-1.00;99.90;;;;;;4435869;28;658701;-73
2023/01/30 09:41:54;;;;;;;11.63;6.10;;;-0.90;99.90;;;;;;4418828;28;659516;-76
2023/01/30 09:45:03;;;;;;;17.67;7.03;;;-0.90;99.90;;;;;;4394435;28;659085;-71
2023/01/30 09:47:54;;;;;;;16.07;7.90;;;-0.70;99.90;;;;;;4393850;28;658821;-72
2023/01/30 09:51:17;;;;;;;15.10;6.90;;;-0.70;99.90;;;;;;4417154;28;658727;-71
2023/01/30 09:54:24;;;;;;;13.67;6.30;;;-0.70;99.90;;;;;;4418304;28;658639;-71
2023/01/30 09:57:20;;;;;;;10.57;5.60;;;-0.60;99.90;;;;;;4391290;28;658767;-70
2023/01/30 10:00:11;;;;;;;12.83;6.97;;;-0.70;99.90;;;;;;4389467;28;659683;-73
2023/01/30 10:03:02;;;;;;;12.13;5.33;;;-0.60;99.90;;;;;;4408296;28;658992;-73
2023/01/30 10:05:49;;;;;;;14.30;6.13;;;-0.80;99.90;;;;;;4406645;28;658941;-74
2023/01/30 10:08:43;;;;;;;16.67;8.47;;;-0.70;99.90;;;;;;4418704;28;659251;-74
2023/01/30 10:11:41;;;;;;;18.80;8.07;;;-0.70;99.90;;;;;;4404326;28;659257;-74
2023/01/30 10:14:46;;;;;;;11.53;5.37;;;-0.80;99.90;;;;;;4409619;28;658567;-75
2023/01/30 10:17:40;;;;;;;13.97;5.70;;;-0.80;99.90;;;;;;4413514;28;658406;-74
2023/01/30 10:20:39;;;;;;;10.30;4.70;;;-0.90;99.90;;;;;;4395313;28;659232;-70
2023/01/30 10:23:39;;;;;;;18.57;8.07;;;-0.90;99.90;;;;;;4417778;28;658563;-73
2023/01/30 10:26:27;;;;;;;19.00;8.87;;;-0.90;99.90;;;;;;4392842;28;659052;-71
2023/01/30 10:29:18;;;;;;;13.90;6.73;;;-0.80;99.90;;;;;;4431969;28;658383;-72
2023/01/30 10:32:07;;;;;;;18.63;8.43;;;-0.80;99.90;;;;;;4402616;28;658415;-73
2023/01/30 10:34:55;;;;;;;17.67;8.33;;;-0.90;99.90;;;;;;4437004;28;658481;-72
2023/01/30 10:37:44;;;;;;;13.50;5.77;;;-0.90;99.90;;;;;;4418509;28;659354;-74
2023/01/30 10:40:35;;;;;;;22.10;9.90;;;-0.80;99.90;;;;;;4406842;28;659825;-72
2023/01/30 10:43:26;;;;;;;14.87;7.43;;;-0.80;99.90;;;;;;4410460;28;659484;-74
2023/01/30 10:46:22;;;;;;;16.77;8.50;;;-0.80;99.90;;;;;;4410546;28;659378;-72
2023/01/30 10:49:13;;;;;;;17.73;7.53;;;-0.80;99.90;;;;;;4409014;28;659892;-74
2023/01/30 10:52:02;;;;;;;18.67;8.30;;;-0.80;99.90;;;;;;4395817;28;658812;-73
2023/01/30 10:54:55;;;;;;;20.63;8.97;;;-0.90;99.90;;;;;;4443929;28;659055;-70
2023/01/30 10:57:50;;;;;;;13.70;6.27;;;-1.00;99.90;;;;;;4396189;28;658631;-73
2023/01/30 11:00:39;;;;;;;11.55;5.78;;;-1.00;99.90;;;;;;4408459;28;658473;-72
2023/01/30 11:03:33;;;;;;;14.60;7.73;;;-1.00;99.90;;;;;;4404932;28;659001;-73
2023/01/30 11:06:23;;;;;;;23.90;10.77;;;-1.10;99.90;;;;;;4407623;28;659307;-73
2023/01/30 11:09:10;;;;;;;23.53;10.87;;;-1.10;99.90;;;;;;4408556;28;659446;-72
2023/01/30 11:11:59;;;;;;;26.47;11.23;;;-1.00;99.90;;;;;;4426616;28;661056;-72
2023/01/30 11:14:53;;;;;;;25.43;11.50;;;-1.00;99.90;;;;;;4412977;28;659626;-73
2023/01/30 11:17:41;;;;;;;21.53;8.67;;;-1.00;99.90;;;;;;4419405;28;660900;-73
2023/01/30 11:20:30;;;;;;;16.27;8.20;;;-1.00;99.90;;;;;;4432334;28;658883;-74
2023/01/30 11:23:25;;;;;;;19.58;9.63;;;-1.00;99.90;;;;;;4415879;28;659920;-74
2023/01/30 11:26:19;;;;;;;18.93;8.67;;;-1.00;99.90;;;;;;4407205;28;658965;-73
2023/01/30 11:29:16;;;;;;;28.77;11.20;;;-1.10;99.90;;;;;;4416656;28;659296;-72
2023/01/30 11:32:05;;;;;;;15.07;6.47;;;-1.20;99.90;;;;;;4407454;28;659741;-73
2023/01/30 11:35:02;;;;;;;20.03;8.27;;;-1.10;99.90;;;;;;4422683;28;659851;-72
2023/01/30 11:37:52;;;;;;;16.60;7.10;;;-1.20;99.90;;;;;;4422483;28;658927;-72
2023/01/30 11:40:39;;;;;;;26.70;12.57;;;-1.20;99.90;;;;;;4440233;28;658220;-72
2023/01/30 11:43:27;;;;;;;24.77;9.70;;;-1.20;99.90;;;;;;4418265;28;660019;-72
2023/01/30 11:46:17;;;;;;;26.23;11.68;;;-1.20;99.90;;;;;;4434793;28;659343;-73
2023/01/30 11:49:05;;;;;;;23.80;10.23;;;-1.10;99.90;;;;;;4414162;28;659721;-70
2023/01/30 11:51:53;;;;;;;20.63;9.63;;;-1.10;99.90;;;;;;4410675;28;660460;-73
2023/01/30 11:54:43;;;;;;;20.73;10.67;;;-1.10;99.90;;;;;;4421980;28;658500;-72
2023/01/30 11:57:30;;;;;;;23.03;9.27;;;-1.00;99.90;;;;;;4417386;28;659854;-73
2023/01/30 12:00:19;;;;;;;22.37;10.83;;;-0.90;99.90;;;;;;4444336;28;659822;-72
2023/01/30 12:03:10;;;;;;;23.77;10.60;;;-0.80;99.90;;;;;;4417531;28;660595;-72
2023/01/30 12:05:57;;;;;;;20.80;8.60;;;-0.80;99.90;;;;;;4407123;28;660739;-72
2023/01/30 12:08:45;;;;;;;29.87;10.60;;;-0.80;99.90;;;;;;4438997;28;659174;-74
2023/01/30 12:11:44;;;;;;;22.03;9.77;;;-0.80;99.90;;;;;;4423997;28;660934;-73
2023/01/30 12:14:37;;;;;;;27.67;11.80;;;-0.90;99.90;;;;;;4396694;28;659183;-73
2023/01/30 12:17:27;;;;;;;12.43;5.73;;;-0.90;99.90;;;;;;4415976;28;659406;-74
2023/01/30 12:20:19;;;;;;;18.00;9.03;;;-0.90;99.90;;;;;;4429056;28;658575;-73
2023/01/30 12:23:11;;;;;;;18.53;8.23;;;-0.90;99.90;;;;;;4413526;28;658921;-73
2023/01/30 12:26:01;;;;;;;22.90;9.60;;;-0.90;99.90;;;;;;4399318;28;659311;-74
2023/01/30 12:28:52;;;;;;;21.10;9.93;;;-0.90;99.90;;;;;;4389281;28;660182;-73
2023/01/30 12:31:42;;;;;;;18.65;8.88;;;-0.80;99.90;;;;;;4425164;28;658608;-74
2023/01/30 12:34:29;;;;;;;27.53;13.00;;;-0.80;99.90;;;;;;4416270;28;659089;-72
2023/01/30 12:37:26;;;;;;;32.33;13.18;;;-0.90;99.90;;;;;;4418505;28;660369;-73
2023/01/30 12:40:24;;;;;;;20.60;10.17;;;-0.80;99.90;;;;;;4415195;28;660373;-73
2023/01/30 12:43:35;;;;;;;30.67;11.83;;;-0.80;99.90;;;;;;4409318;28;659482;-70
2023/01/30 12:46:33;;;;;;;28.00;12.80;;;-0.80;99.90;;;;;;4409298;28;660334;-71
2023/01/30 12:49:28;;;;;;;27.13;12.43;;;-0.70;1.00;;;;;;4415064;28;659686;-71
2023/01/30 12:52:47;;;;;;;30.50;14.13;;;-0.60;99.90;;;;;;4419027;28;659461;-71
2023/01/30 12:55:39;;;;;;;21.07;8.97;;;-0.50;99.90;;;;;;4421143;28;659704;-73
2023/01/30 12:58:27;;;;;;;17.98;7.25;;;-0.30;1.00;;;;;;4391223;28;659429;-71
2023/01/30 13:01:21;;;;;;;23.63;11.03;;;-0.30;1.00;;;;;;4429751;28;657571;-77
2023/01/30 13:04:14;;;;;;;20.03;9.83;;;-0.20;99.90;;;;;;4414043;28;658734;-74
2023/01/30 13:07:08;;;;;;;22.27;9.37;;;-0.10;99.90;;;;;;4388839;28;658600;-74
2023/01/30 13:10:03;;;;;;;18.70;8.43;;;-0.10;99.90;;;;;;4407255;28;658954;-72
2023/01/30 13:12:54;;;;;;;16.60;8.27;;;-0.40;99.90;;;;;;4406328;28;658782;-74
2023/01/30 13:15:44;;;;;;;25.97;11.73;;;-0.50;99.90;;;;;;4415276;28;658675;-74
2023/01/30 13:18:32;;;;;;;23.57;10.87;;;-0.50;99.90;;;;;;4408864;28;659459;-73
2023/01/30 13:21:23;;;;;;;21.70;9.03;;;-0.50;99.90;;;;;;4428047;28;660124;-74
2023/01/30 13:24:17;;;;;;;27.63;13.20;;;-0.50;99.90;;;;;;4415834;28;658952;-73
2023/01/30 13:27:08;;;;;;;28.90;13.23;;;-0.50;99.90;;;;;;4416677;28;659597;-71
2023/01/30 13:29:55;;;;;;;23.13;8.83;;;-0.60;99.90;;;;;;4393046;28;660464;-74
2023/01/30 13:32:45;;;;;;;29.33;12.73;;;-0.60;99.90;;;;;;4437806;28;659584;-73
2023/01/30 13:35:34;;;;;;;15.90;6.40;;;-0.60;99.90;;;;;;4408127;28;660450;-75
2023/01/30 13:38:24;;;;;;;25.38;12.07;;;-0.60;99.90;;;;;;4410889;28;658792;-73
2023/01/30 13:41:13;;;;;;;23.43;10.60;;;-0.60;99.90;;;;;;4413794;28;659871;-71
2023/01/30 13:44:00;;;;;;;21.03;9.67;;;-0.60;99.90;;;;;;4429559;28;660263;-73
2023/01/30 13:46:47;;;;;;;25.70;12.27;;;-0.60;99.90;;;;;;4426114;28;660470;-71
2023/01/30 13:49:39;;;;;;;25.93;11.37;;;-0.60;99.90;;;;;;4429252;28;660564;-73
2023/01/30 13:52:30;;;;;;;29.23;14.07;;;-0.60;99.90;;;;;;4405089;28;660086;-72
2023/01/30 13:55:25;;;;;;;28.13;11.33;;;-0.50;99.90;;;;;;4405575;28;662252;-73
2023/01/30 13:58:17;;;;;;;19.73;9.43;;;-0.60;99.90;;;;;;4393881;28;660169;-76
2023/01/30 14:01:04;;;;;;;39.57;15.17;;;-0.60;99.90;;;;;;4409428;28;658974;-74
2023/01/30 14:03:52;;;;;;;32.80;14.93;;;-0.60;99.90;;;;;;4417650;28;660915;-74
2023/01/30 14:06:39;;;;;;;17.23;7.63;;;-0.60;99.90;;;;;;4433748;28;659843;-71
2023/01/30 14:09:27;;;;;;;22.35;10.32;;;-0.50;99.90;;;;;;4412371;28;658832;-73
2023/01/30 14:12:19;;;;;;;30.23;12.60;;;-0.50;99.90;;;;;;4438470;28;660530;-74
2023/01/30 14:15:15;;;;;;;28.50;12.00;;;-0.50;99.90;;;;;;4408729;28;659514;-74
2023/01/30 14:18:05;;;;;;;29.07;12.97;;;-0.40;99.90;;;;;;4410196;28;659777;-74
2023/01/30 14:20:53;;;;;;;23.47;11.47;;;-0.30;99.90;;;;;;4412883;28;660101;-76
2023/01/30 14:23:40;;;;;;;26.33;12.23;;;-0.20;99.90;;;;;;4420823;28;659735;-72
2023/01/30 14:27:02;;;;;;;26.03;11.73;;;-0.10;99.90;;;;;;4432895;28;659469;-73